Flight Track Log - Related Links

Times and Time Zones

All times are in EDT time to prevent confusion due to time zone crossing. See the UAL1002 flight status page for this flight to view local times or setup timezone preferences in your user account.

Time Position Orientation Groundspeed Altitude Reporting Facility
EDT Latitude Longitude Course Direction KTS MPH feet Rate Location/Type
Wed 05:27:24 PM 41.9519 -72.6689 North 155 178 1,000  Level Boston Center
Wed 05:27:51 PM 41.9667 -72.6467 48° Northeast 181 208 1,800 2,182 Climbing Boston Center
Wed 05:28:52 PM 42.0022 -72.5881 51° Northeast 209 241 4,200 3,124 Climbing Boston Center
Wed 05:29:52 PM 42.0708 -72.6442 329° Northwest 214 246 8,100 3,305 Climbing Boston Center
Wed 05:30:00 PM 41.9652 -73.0697 324° Northwest  Level Estimated
Wed 05:30:50 PM 42.1311 -72.7256 315° West 246 283 10,700  Level Boston Center
Wed 05:31:00 PM 41.9737 -73.1985 340° North  Level Estimated
Wed 05:31:50 PM 42.1914 -72.8100 314° West 313 360 12,900  Level Boston Center
Wed 05:32:00 PM 42.0691 -73.1832 North  Level FlightAware Approximate
Wed 05:32:51 PM 42.2764 -72.9256 315° West 378 435 15,600  Level Boston Center
Wed 05:33:52 PM 42.3739 -72.9994 331° Northwest 396 456 17,600 2,083 Climbing Boston Center
Wed 05:34:52 PM 42.4864 -73.0511 341° North 401 461 19,800 2,288 Climbing Boston Center
Wed 05:35:50 PM 42.5964 -73.1169 336° Northwest 418 481 22,100 1,916 Climbing Boston Center
Wed 05:36:51 PM 42.7106 -73.1889 335° Northwest 440 506 23,600 1,820 Climbing Boston Center
Wed 05:37:52 PM 42.8164 -73.2467 338° Northwest 440 506 25,800 1,785 Climbing Boston Center
Wed 05:38:52 PM 42.9347 -73.3136 338° Northwest 450 518 27,200 1,600 Climbing Boston Center
Wed 05:39:52 PM 43.0064 -73.4708 302° West 423 487 29,000 1,424 Climbing Boston Center
Wed 05:40:50 PM 43.0172 -73.6414 275° West 418 481 30,000 508 Climbing Boston Center
Wed 05:41:50 PM 43.0256 -73.8147 274° West 436 502 30,000  Level Boston Center
Wed 05:42:51 PM 43.0381 -73.9825 276° West 446 513 30,000 -50 Level Boston Center
Wed 05:43:51 PM 43.0503 -74.1506 276° West 446 513 29,900  Descending Boston Center
Wed 05:44:51 PM 43.0558 -74.3211 273° West 446 513 30,000 50 Climbing Boston Center
Wed 05:45:52 PM 43.0675 -74.4919 275° West 446 513 30,000 -50 Level Boston Center
Wed 05:46:52 PM 43.0789 -74.6631 275° West 451 519 29,900 -50 Descending Boston Center
Wed 05:47:53 PM 43.0881 -74.8339 274° West 457 526 29,900  Level Boston Center
Wed 05:48:50 PM 43.0989 -75.0078 275° West 457 526 29,900 51 Level Boston Center
Wed 05:49:51 PM 43.1075 -75.1789 274° West 462 532 30,000 50 Climbing Boston Center
Wed 05:50:51 PM 43.1175 -75.3558 274° West 462 532 30,000  Level Boston Center
Wed 05:51:52 PM 43.1264 -75.4983 275° West 462 532 30,000  Level Boston Center
Wed 05:52:50 PM 43.1356 -75.6897 274° West 462 532 30,000  Level Boston Center
Wed 05:53:51 PM 43.1453 -75.8636 274° West 462 532 30,000  Level Boston Center
Wed 05:54:51 PM 43.1544 -76.0381 274° West 462 532 30,000 1,143 Level Boston Center
Wed 05:57:21 PM 43.1500 -76.4500 269° West 440 506 34,000 1,629 Climbing Toronto Center
Wed 05:58:21 PM 43.1500 -76.6167 270° West 420 483 35,700 1,000 Climbing Toronto Center
Wed 05:59:21 PM 43.1500 -76.7833 270° West 410 472 36,000 150 Climbing Toronto Center
Wed 06:00:21 PM 43.1500 -76.9167 270° West 410 472 36,000  Level Toronto Center
Wed 06:01:21 PM 43.1500 -77.1000 270° West 420 483 36,000  Level Toronto Center
Wed 06:02:21 PM 43.1333 -77.2333 260° West 420 483 36,000  Level Toronto Center
Wed 06:03:21 PM 43.1500 -77.4167 277° West 420 483 36,000  Level Toronto Center
Wed 06:04:21 PM 43.1500 -77.5500 270° West 410 472 36,000  Level Toronto Center
Wed 06:05:39 PM 43.1500 -77.7661 270° West 403 464 36,000  Level Cleveland Center
Wed 06:06:41 PM 43.1486 -77.9178 269° West 402 463 36,000  Level Cleveland Center
Wed 06:07:43 PM 43.1458 -78.0997 269° West 402 463 36,000  Level Cleveland Center
Wed 06:08:46 PM 43.1436 -78.2519 269° West 403 464 36,000  Level Cleveland Center
Wed 06:09:48 PM 43.1406 -78.4050 268° West 404 465 36,000  Level Cleveland Center
Wed 06:10:50 PM 43.1353 -78.5594 267° West 412 474 36,000  Level Cleveland Center
Wed 06:11:52 PM 43.1311 -78.7108 268° West 401 461 36,000  Level Cleveland Center
Wed 06:12:54 PM 43.1269 -78.8631 268° West 401 461 36,000  Level Cleveland Center
Wed 06:13:56 PM 43.1225 -79.0442 268° West 400 460 36,000  Level Cleveland Center
Wed 06:14:58 PM 43.1169 -79.1942 267° West 398 458 36,000  Level Cleveland Center
Wed 06:16:00 PM 43.1125 -79.3442 268° West 396 456 36,000  Level Cleveland Center
Wed 06:17:02 PM 43.1075 -79.4956 267° West 398 458 36,000  Level Cleveland Center
Wed 06:18:04 PM 43.1011 -79.6478 267° West 402 463 36,000  Level Cleveland Center
Wed 06:19:06 PM 43.0931 -79.8308 267° West 404 465 36,000  Level Cleveland Center
Wed 06:20:08 PM 43.1075 -79.9833 277° West 445 512 36,000  Level Cleveland Center
Wed 06:21:10 PM 43.1856 -80.1144 309° West 447 514 36,000  Level Cleveland Center
Wed 06:22:12 PM 43.2733 -80.2378 314° West 444 511 36,000  Level Cleveland Center
Wed 06:23:14 PM 43.3539 -80.3600 312° West 446 513 36,000  Level Cleveland Center
Wed 06:24:16 PM 43.3936 -80.5372 287° West 429 494 36,000  Level Cleveland Center
Wed 06:25:19 PM 43.3753 -80.6967 261° West 421 484 36,000  Level Cleveland Center
Wed 06:26:21 PM 43.3333 -80.8500 249° West 420 483 36,000  Level Toronto Center
Wed 06:27:21 PM 43.3167 -81.0000 261° West 410 472 36,000  Level Toronto Center
Wed 06:28:21 PM 43.3000 -81.1667 262° West 410 472 36,000  Level Toronto Center
Wed 06:29:21 PM 43.2833 -81.3333 262° West 410 472 36,000  Level Toronto Center
Wed 06:30:21 PM 43.2667 -81.4667 260° West 410 472 36,000  Level Toronto Center
Wed 06:31:21 PM 43.2500 -81.6167 261° West 420 483 36,000  Level Toronto Center
Wed 06:32:21 PM 43.2333 -81.7833 262° West 420 483 36,000  Level Toronto Center
Wed 06:33:21 PM 43.2000 -81.9500 255° West 420 483 36,000  Level Toronto Center
Wed 06:34:21 PM 43.1833 -82.1000 261° West 430 495 36,000  Level Toronto Center
Wed 06:35:21 PM 43.1667 -82.2667 262° West 430 495 36,000  Level Toronto Center
Wed 06:36:21 PM 43.1500 -82.4167 261° West 430 495 36,000 -150 Level Toronto Center
Wed 06:37:21 PM 43.1333 -82.5833 262° West 430 495 35,700 -650 Descending Toronto Center
Wed 06:38:21 PM 43.0833 -82.7333 246° West 430 495 34,700 -950 Descending Toronto Center
Wed 06:39:21 PM 43.0667 -82.9000 262° West 430 495 33,800 -950 Descending Toronto Center
Wed 06:40:21 PM 43.0500 -83.0833 263° West 430 495 32,800 -900 Descending Toronto Center
Wed 06:41:21 PM 43.0167 -83.2167 251° West 430 495 32,000 -527 Descending Toronto Center
Wed 06:41:52 PM 43.0328 -83.2969 285° West 437 503 32,000  Level Cleveland Center
Wed 06:42:54 PM 43.0092 -83.4583 259° West 437 503 32,000  Level Cleveland Center
Wed 06:43:56 PM 42.9800 -83.6517 258° West 438 504 32,000  Level Cleveland Center
Wed 06:44:58 PM 42.9592 -83.8164 260° West 441 507 32,000  Level Cleveland Center
Wed 06:46:00 PM 42.9439 -83.9806 263° West 441 507 32,000  Level Cleveland Center
Wed 06:47:02 PM 42.9272 -84.1472 262° West 445 512 32,000  Level Cleveland Center
Wed 06:48:04 PM 42.9108 -84.3125 262° West 444 511 32,000  Level Cleveland Center
Wed 06:48:52 PM 42.8969 -84.4603 263° West 445 512 32,000  Level Chicago Center
Wed 06:49:54 PM 42.8797 -84.6275 262° West 446 513 32,000  Level Chicago Center
Wed 06:50:56 PM 42.8628 -84.7953 262° West 447 514 32,000  Level Chicago Center
Wed 06:51:58 PM 42.8444 -84.9647 262° West 451 519 32,000  Level Chicago Center
Wed 06:53:00 PM 42.8236 -85.1653 262° West 448 516 32,000  Level Chicago Center
Wed 06:54:02 PM 42.8050 -85.3381 262° West 457 526 32,000  Level Chicago Center
Wed 06:55:05 PM 42.7842 -85.5128 261° West 465 535 32,000 -1,248 Level Chicago Center
Wed 06:56:07 PM 42.7519 -85.6858 256° West 468 539 29,400 -2,565 Descending Chicago Center
Wed 06:57:09 PM 42.7214 -85.8561 256° West 464 534 26,700 -2,516 Descending Chicago Center
Wed 06:58:11 PM 42.6922 -86.0186 256° West 446 513 24,200 -2,468 Descending Chicago Center
Wed 06:59:13 PM 42.6642 -86.1736 256° West 425 489 21,600 -2,032 Descending Chicago Center
Wed 07:00:15 PM 42.6292 -86.3489 255° West 396 456 20,000 -774 Descending Chicago Center
Wed 07:01:17 PM 42.6039 -86.4947 257° West 397 457 20,000 -774 Level Chicago Center
Wed 07:02:19 PM 42.5758 -86.6375 255° West 392 451 18,400 -1,887 Descending Chicago Center
Wed 07:03:21 PM 42.5494 -86.7736 255° West 378 435 16,100 -2,274 Descending Chicago Center
Wed 07:04:23 PM 42.5128 -86.9033 249° West 371 427 13,700 -2,323 Descending Chicago Center
Wed 07:05:25 PM 42.4797 -87.0289 250° West 359 413 11,300 -1,632 Descending Chicago Center
Wed 07:06:28 PM 42.4450 -87.1450 248° West 336 387 10,300 -1,104 Descending Chicago Center
Wed 07:07:30 PM 42.4125 -87.2656 250° West 290 334 9,000 -629 Descending Chicago Center
Wed 07:08:32 PM 42.3856 -87.3631 250° West 280 322 9,000  Level Chicago Center
Wed 07:09:34 PM 42.3550 -87.4656 248° West 276 318 9,000 -387 Level Chicago Center
Wed 07:10:36 PM 42.3103 -87.5492 234° Southwest 293 337 8,200 -823 Descending Chicago Center
Wed 07:11:38 PM 42.2550 -87.6103 219° Southwest 259 298 7,300 -919 Descending Chicago Center
Wed 07:12:40 PM 42.2072 -87.6644 220° Southwest 232 267 6,300 -1,161 Descending Chicago Center
Wed 07:13:42 PM 42.1586 -87.7181 219° Southwest 194 223 4,900 -1,161 Descending Chicago Center
Wed 07:14:44 PM 42.1219 -87.7581 219° Southwest 178 205 3,900 -1,021 Descending Chicago Center
Wed 07:15:16 PM 42.1000 -87.7833 221° Southwest 163 188 3,300 -978 Descending Chicago TRACON
Wed 07:16:16 PM 42.0667 -87.8167 217° Southwest 165 190 2,400 -895 Descending Chicago TRACON
Wed 07:17:10 PM 42.0333 -87.8500 217° Southwest 151 174 1,600 -850 Descending Chicago TRACON
Wed 07:18:16 PM 42.0000 -87.9000 228° Southwest 160 184 700 -818 Descending Chicago TRACON

Login

Don't have an account? Register now (free) for customized features, flight alerts, and more!